Time;durP1;ratioP1;P1;durP2;ratioP2;P2;SDS_P1;SDS_P2;PMS_P1;PMS_P2;Temp;Humidity;BMP_temperature;BMP_pressure;BME280_temperature;BME280_humidity;BME280_pressure;Samples;Min_cycle;Max_cycle;Signal;HPM_P1;HPM_P2
2023/01/22 00:00:57;;;;;;;;;;;-0.50;89.80;;;;;;5094067;28;19916;-25
2023/01/22 00:03:22;;;;;;;;;;;-0.60;89.90;;;;;;5093861;28;20012;-26
2023/01/22 00:05:51;;;;;;;;;;;-0.60;89.90;;;;;;5092749;28;20329;-26
2023/01/22 00:08:17;;;;;;;;;;;-0.60;90.00;;;;;;5094162;28;19964;-43
2023/01/22 00:10:50;;;;;;;;;;;-0.60;90.30;;;;;;5094055;28;19912;-26
2023/01/22 00:13:15;;;;;;;;;;;-0.60;90.00;;;;;;5094104;28;20224;-25
2023/01/22 00:15:41;;;;;;;;;;;-0.60;90.00;;;;;;5093540;28;19927;-27
2023/01/22 00:18:06;;;;;;;;;;;-0.60;90.00;;;;;;5093705;28;19948;-25
2023/01/22 00:20:32;;;;;;;;;;;-0.70;90.00;;;;;;5093860;28;19913;-27
2023/01/22 00:22:57;;;;;;;;;;;-0.70;90.00;;;;;;5093654;28;20272;-26
2023/01/22 00:25:23;;;;;;;;;;;-0.60;90.00;;;;;;5093597;28;20006;-25
2023/01/22 00:27:48;;;;;;;;;;;-0.70;90.00;;;;;;5093396;28;19919;-27
2023/01/22 00:30:14;;;;;;;;;;;-0.70;90.00;;;;;;5093748;28;19955;-28
2023/01/22 00:32:39;;;;;;;;;;;-0.70;90.00;;;;;;5093454;28;19912;-26
2023/01/22 00:35:05;;;;;;;;;;;-0.70;90.00;;;;;;5093638;28;19935;-25
2023/01/22 00:37:30;;;;;;;;;;;-0.60;90.00;;;;;;5093242;28;19916;-25
2023/01/22 00:39:56;;;;;;;;;;;-0.60;90.00;;;;;;5093466;28;20363;-25
2023/01/22 00:42:21;;;;;;;;;;;-0.60;90.00;;;;;;5093408;28;19919;-25
2023/01/22 00:44:47;;;;;;;;;;;-0.60;90.00;;;;;;5093445;28;19916;-28
2023/01/22 00:47:12;;;;;;;;;;;-0.60;90.10;;;;;;5093044;28;20010;-27
2023/01/22 00:49:38;;;;;;;;;;;-0.50;90.10;;;;;;5092989;28;20236;-37
2023/01/22 00:52:03;;;;;;;;;;;-0.50;90.10;;;;;;5093027;28;19946;-29
2023/01/22 00:54:29;;;;;;;;;;;-0.50;90.00;;;;;;5093121;28;19935;-27
2023/01/22 00:56:55;;;;;;;;;;;-0.40;90.10;;;;;;5092847;28;20015;-26
2023/01/22 00:59:20;;;;;;;;;;;-0.40;90.10;;;;;;5093144;28;19912;-25
2023/01/22 01:01:46;;;;;;;;;;;-0.40;90.00;;;;;;5093071;28;19916;-24
2023/01/22 01:04:13;;;;;;;;;;;-0.30;90.00;;;;;;5092866;28;19912;-28
2023/01/22 01:06:38;;;;;;;;;;;-0.30;90.00;;;;;;5092610;28;19912;-26
2023/01/22 01:09:04;;;;;;;;;;;-0.30;90.00;;;;;;5092655;28;19912;-31
2023/01/22 01:11:30;;;;;;;;;;;-0.20;90.00;;;;;;5092594;28;19922;-27
2023/01/22 01:13:55;;;;;;;;;;;-0.20;90.00;;;;;;5092681;28;19965;-27
2023/01/22 01:16:21;;;;;;;;;;;-0.10;90.00;;;;;;5092434;28;20069;-28
2023/01/22 01:18:47;;;;;;;;;;;-0.10;90.00;;;;;;5092657;28;19912;-29
2023/01/22 01:21:12;;;;;;;;;;;0.00;90.00;;;;;;5092442;28;20291;-26
2023/01/22 01:23:38;;;;;;;;;;;0.00;90.00;;;;;;5092407;28;19966;-25
2023/01/22 01:26:07;;;;;;;;;;;0.00;90.00;;;;;;5092356;28;19912;-29
2023/01/22 01:28:36;;;;;;;;;;;0.10;89.90;;;;;;5092586;28;19912;-31
2023/01/22 01:31:03;;;;;;;;;;;0.10;89.90;;;;;;5092198;28;19912;-26
2023/01/22 01:33:29;;;;;;;;;;;0.20;89.90;;;;;;5092552;28;19916;-25
2023/01/22 01:36:01;;;;;;;;;;;0.20;89.80;;;;;;5092348;28;20064;-26
2023/01/22 01:38:27;;;;;;;;;;;0.30;89.60;;;;;;5092032;28;19976;-25
2023/01/22 01:40:52;;;;;;;;;;;0.30;89.60;;;;;;5092439;28;20011;-27
2023/01/22 01:43:18;;;;;;;;;;;0.40;89.60;;;;;;5092109;28;19994;-27
2023/01/22 01:45:44;;;;;;;;;;;0.50;89.60;;;;;;5092100;28;19963;-31
2023/01/22 01:48:32;;;;;;;;;;;0.50;89.50;;;;;;5092385;28;20261;-28
2023/01/22 01:50:58;;;;;;;;;;;0.60;89.50;;;;;;5090650;28;19912;-28
2023/01/22 01:53:23;;;;;;;;;;;0.60;89.40;;;;;;5092154;28;19919;-28
2023/01/22 01:55:49;;;;;;;;;;;0.70;89.40;;;;;;5091938;28;19969;-27
2023/01/22 01:58:20;;;;;;;;;;;0.70;90.00;;;;;;5091831;28;20426;-31
2023/01/22 02:00:46;;;;;;;;;;;0.70;89.30;;;;;;5092171;28;19912;-30
2023/01/22 02:03:12;;;;;;;;;;;0.70;89.30;;;;;;5092333;28;19959;-28
2023/01/22 02:05:37;;;;;;;;;;;0.70;89.20;;;;;;5092360;28;20356;-31
2023/01/22 02:08:04;;;;;;;;;;;0.70;89.20;;;;;;5092069;28;20010;-32
2023/01/22 02:10:29;;;;;;;;;;;0.70;89.20;;;;;;5091973;28;20359;-26
2023/01/22 02:12:57;;;;;;;;;;;0.70;89.20;;;;;;5091753;28;19919;-31
2023/01/22 02:15:22;;;;;;;;;;;0.70;89.30;;;;;;5091530;28;20302;-29
2023/01/22 02:17:48;;;;;;;;;;;0.60;89.30;;;;;;5091572;28;19916;-30
2023/01/22 02:20:14;;;;;;;;;;;0.60;89.30;;;;;;5091890;28;19956;-27
2023/01/22 02:22:40;;;;;;;;;;;0.60;89.40;;;;;;5091769;28;19919;-26
2023/01/22 02:25:06;;;;;;;;;;;0.60;89.40;;;;;;5091429;28;19916;-26
2023/01/22 02:27:32;;;;;;;;;;;0.60;89.50;;;;;;5091917;28;19962;-26
2023/01/22 02:29:57;;;;;;;;;;;0.70;89.50;;;;;;5096034;28;19943;-26
2023/01/22 02:32:23;;;;;;;;;;;0.70;89.50;;;;;;5095702;28;19938;-27
2023/01/22 02:34:48;;;;;;;;;;;0.70;89.50;;;;;;5095677;28;20283;-27
2023/01/22 02:37:14;;;;;;;;;;;0.70;89.40;;;;;;5095595;28;19916;-28
2023/01/22 02:39:39;;;;;;;;;;;0.70;89.40;;;;;;5095883;28;20324;-31
2023/01/22 02:42:05;;;;;;;;;;;0.70;89.40;;;;;;5095456;28;19912;-27
2023/01/22 02:44:31;;;;;;;;;;;0.80;89.40;;;;;;5095206;28;20333;-27
2023/01/22 02:46:57;;;;;;;;;;;0.70;89.90;;;;;;5095346;28;19920;-26
2023/01/22 02:49:22;;;;;;;;;;;0.70;89.30;;;;;;5093825;28;20261;-30
2023/01/22 02:51:48;;;;;;;;;;;0.80;89.40;;;;;;5095382;28;20003;-26
2023/01/22 02:54:13;;;;;;;;;;;0.80;89.50;;;;;;5095341;28;20289;-30
2023/01/22 02:56:39;;;;;;;;;;;0.70;89.40;;;;;;5094846;28;20398;-27
2023/01/22 02:59:04;;;;;;;;;;;0.70;89.50;;;;;;5095140;28;19935;-33
2023/01/22 03:01:30;;;;;;;;;;;0.70;89.50;;;;;;5095242;28;19928;-27
2023/01/22 03:03:56;;;;;;;;;;;0.70;89.60;;;;;;5094959;28;19915;-27
2023/01/22 03:06:26;;;;;;;;;;;0.60;89.60;;;;;;5094889;28;19920;-27
2023/01/22 03:08:55;;;;;;;;;;;0.70;90.10;;;;;;5094911;28;19912;-26
2023/01/22 03:11:21;;;;;;;;;;;0.70;89.60;;;;;;5094897;28;19919;-34
2023/01/22 03:22:00;;;;;;;;;;;0.60;89.50;;;;;;5094606;28;20020;-26
2023/01/22 03:24:26;;;;;;;;;;;0.60;89.60;;;;;;5094803;28;19966;-26
2023/01/22 03:26:51;;;;;;;;;;;0.70;89.60;;;;;;5095091;28;20344;-27
2023/01/22 03:29:17;;;;;;;;;;;0.60;89.50;;;;;;5094559;28;19919;-33
2023/01/22 03:31:46;;;;;;;;;;;0.60;89.40;;;;;;5094569;28;19918;-25
2023/01/22 03:34:16;;;;;;;;;;;0.70;89.50;;;;;;5094353;28;19995;-29
2023/01/22 03:36:42;;;;;;;;;;;0.70;89.40;;;;;;5094281;28;19966;-30
2023/01/22 03:39:07;;;;;;;;;;;0.70;89.30;;;;;;5093856;28;20314;-26
2023/01/22 03:41:33;;;;;;;;;;;0.70;89.20;;;;;;5093919;28;20369;-28
2023/01/22 03:44:00;;;;;;;;;;;0.70;89.10;;;;;;5093691;28;19955;-26
2023/01/22 03:46:26;;;;;;;;;;;0.70;89.00;;;;;;5094132;28;19962;-26
2023/01/22 03:48:51;;;;;;;;;;;0.80;89.10;;;;;;5094332;28;19912;-31
2023/01/22 03:51:17;;;;;;;;;;;0.80;89.00;;;;;;5094162;28;19966;-29
2023/01/22 03:53:43;;;;;;;;;;;0.80;89.00;;;;;;5093991;28;20375;-34
2023/01/22 03:56:13;;;;;;;;;;;0.80;89.00;;;;;;5093785;28;19916;-30
2023/01/22 03:58:39;;;;;;;;;;;0.80;88.90;;;;;;5093858;28;19912;-30
2023/01/22 04:01:06;;;;;;;;;;;0.80;88.90;;;;;;5093948;28;20394;-26
2023/01/22 04:03:32;;;;;;;;;;;0.90;89.00;;;;;;5093800;28;20352;-25
2023/01/22 04:06:00;;;;;;;;;;;0.90;89.00;;;;;;5093970;28;19919;-26
2023/01/22 04:08:27;;;;;;;;;;;1.00;89.00;;;;;;5092339;28;19916;-26
2023/01/22 04:10:53;;;;;;;;;;;1.00;88.70;;;;;;5093703;28;19974;-29
2023/01/22 04:13:18;;;;;;;;;;;1.00;88.70;;;;;;5092240;28;19912;-29
2023/01/22 04:15:44;;;;;;;;;;;1.00;88.70;;;;;;5093397;28;20375;-30
2023/01/22 04:18:10;;;;;;;;;;;1.10;88.80;;;;;;5093863;28;19919;-33
2023/01/22 04:20:35;;;;;;;;;;;1.10;88.60;;;;;;5094056;28;19918;-27
2023/01/22 04:23:01;;;;;;;;;;;1.10;88.60;;;;;;5093756;28;20011;-31
2023/01/22 04:25:26;;;;;;;;;;;1.10;88.60;;;;;;5093893;28;19912;-31
2023/01/22 04:27:52;;;;;;;;;;;1.10;88.60;;;;;;5093829;28;19955;-26
2023/01/22 04:30:17;;;;;;;;;;;1.00;88.60;;;;;;5093547;28;19912;-28
2023/01/22 04:32:43;;;;;;;;;;;1.00;88.60;;;;;;5092243;28;20305;-40
2023/01/22 04:35:08;;;;;;;;;;;1.00;88.70;;;;;;5093418;28;19919;-29
2023/01/22 04:37:34;;;;;;;;;;;1.10;88.80;;;;;;5093413;28;20385;-26
2023/01/22 04:39:59;;;;;;;;;;;1.10;88.80;;;;;;5093286;28;19916;-26
2023/01/22 04:42:26;;;;;;;;;;;1.20;88.70;;;;;;5093613;28;19912;-26
2023/01/22 04:44:52;;;;;;;;;;;1.10;88.60;;;;;;5093596;28;20420;-29
2023/01/22 04:47:17;;;;;;;;;;;1.20;88.60;;;;;;5093459;28;19913;-26
2023/01/22 04:49:43;;;;;;;;;;;1.20;88.50;;;;;;5093138;28;19912;-27
2023/01/22 04:52:08;;;;;;;;;;;1.20;88.40;;;;;;5092601;28;20394;-25
2023/01/22 04:54:34;;;;;;;;;;;1.10;88.40;;;;;;5091627;28;20007;-27
2023/01/22 04:56:59;;;;;;;;;;;1.10;88.40;;;;;;5093048;28;19999;-27
2023/01/22 04:59:25;;;;;;;;;;;1.10;88.40;;;;;;5092992;28;19916;-25
2023/01/22 05:01:51;;;;;;;;;;;1.20;88.30;;;;;;5092963;28;19965;-41
2023/01/22 05:04:17;;;;;;;;;;;1.10;88.10;;;;;;5092991;28;19912;-29
2023/01/22 05:06:43;;;;;;;;;;;1.10;88.10;;;;;;5092909;28;19919;-27
2023/01/22 05:09:08;;;;;;;;;;;1.10;88.10;;;;;;5093375;28;19912;-28
2023/01/22 05:11:34;;;;;;;;;;;1.10;88.30;;;;;;5092737;28;19912;-27
2023/01/22 05:13:59;;;;;;;;;;;1.10;88.20;;;;;;5092578;28;19920;-26
2023/01/22 05:16:25;;;;;;;;;;;1.10;88.20;;;;;;5092699;28;19916;-31
2023/01/22 05:18:50;;;;;;;;;;;1.10;88.20;;;;;;5092903;28;19912;-26
2023/01/22 05:21:16;;;;;;;;;;;1.10;88.40;;;;;;5092805;28;19939;-27
2023/01/22 05:23:42;;;;;;;;;;;1.10;88.20;;;;;;5092580;28;19919;-26
2023/01/22 05:26:08;;;;;;;;;;;1.10;88.20;;;;;;5092897;28;19957;-26
2023/01/22 05:28:33;;;;;;;;;;;1.10;88.30;;;;;;5092408;28;20386;-26
2023/01/22 05:30:59;;;;;;;;;;;1.10;88.20;;;;;;5092509;28;20001;-28
2023/01/22 05:33:27;;;;;;;;;;;1.10;88.20;;;;;;5091123;28;19916;-26
2023/01/22 05:35:56;;;;;;;;;;;1.10;88.10;;;;;;5092295;28;19966;-29
2023/01/22 05:38:22;;;;;;;;;;;1.10;88.10;;;;;;5092248;28;19912;-27
2023/01/22 05:40:48;;;;;;;;;;;1.10;88.20;;;;;;5092157;28;19939;-26
2023/01/22 05:43:13;;;;;;;;;;;1.00;88.10;;;;;;5092578;28;19951;-27
2023/01/22 05:45:38;;;;;;;;;;;1.10;88.20;;;;;;5092498;28;19916;-47
2023/01/22 05:48:04;;;;;;;;;;;1.10;88.20;;;;;;5091019;28;19912;-26
2023/01/22 05:50:30;;;;;;;;;;;1.00;88.10;;;;;;5092373;28;20390;-29
2023/01/22 05:52:55;;;;;;;;;;;1.10;88.20;;;;;;5092126;28;19925;-27
2023/01/22 05:55:21;;;;;;;;;;;1.10;88.20;;;;;;5091835;28;19919;-30
2023/01/22 05:57:46;;;;;;;;;;;1.10;88.30;;;;;;5092442;28;19912;-29
2023/01/22 06:00:12;;;;;;;;;;;1.10;88.20;;;;;;5092126;28;19912;-25
2023/01/22 06:02:38;;;;;;;;;;;1.20;88.40;;;;;;5092125;28;20398;-25
2023/01/22 06:05:03;;;;;;;;;;;1.10;88.10;;;;;;5091932;28;19921;-25
2023/01/22 06:07:29;;;;;;;;;;;1.10;88.00;;;;;;5092174;28;19993;-28
2023/01/22 06:09:54;;;;;;;;;;;1.20;88.10;;;;;;5091989;28;19999;-28
2023/01/22 06:12:20;;;;;;;;;;;1.20;88.10;;;;;;5091861;28;19908;-27
2023/01/22 06:14:46;;;;;;;;;;;1.10;88.00;;;;;;5091780;28;20226;-26
2023/01/22 06:17:11;;;;;;;;;;;1.10;88.10;;;;;;5091788;28;19950;-25
2023/01/22 06:19:36;;;;;;;;;;;1.20;88.10;;;;;;5090515;28;19912;-26
2023/01/22 06:22:02;;;;;;;;;;;1.20;88.00;;;;;;5091729;28;19961;-28
2023/01/22 06:24:27;;;;;;;;;;;1.10;87.90;;;;;;5091880;28;19933;-31
2023/01/22 06:26:53;;;;;;;;;;;1.10;87.90;;;;;;5092011;28;19908;-26
2023/01/22 06:29:18;;;;;;;;;;;1.10;87.90;;;;;;5091924;28;19948;-32
2023/01/22 06:31:44;;;;;;;;;;;1.10;88.00;;;;;;5092042;28;19914;-25
2023/01/22 06:34:09;;;;;;;;;;;1.10;88.00;;;;;;5091631;28;19916;-29
2023/01/22 06:36:35;;;;;;;;;;;1.10;88.00;;;;;;5091615;28;20264;-27
2023/01/22 06:39:00;;;;;;;;;;;1.00;88.00;;;;;;5091892;28;20220;-27
2023/01/22 06:41:26;;;;;;;;;;;1.00;88.00;;;;;;5091570;28;19919;-28
2023/01/22 06:43:51;;;;;;;;;;;1.00;88.10;;;;;;5091577;28;19908;-26
2023/01/22 06:46:17;;;;;;;;;;;0.90;88.00;;;;;;5091850;28;19920;-27
2023/01/22 06:48:42;;;;;;;;;;;0.90;88.00;;;;;;5091505;28;19995;-25
2023/01/22 06:51:08;;;;;;;;;;;0.90;88.10;;;;;;5091813;28;19958;-26
2023/01/22 06:53:34;;;;;;;;;;;0.90;88.20;;;;;;5091509;28;19908;-25
2023/01/22 06:55:59;;;;;;;;;;;0.90;88.20;;;;;;5091769;28;19912;-24
2023/01/22 06:58:25;;;;;;;;;;;0.90;88.20;;;;;;5091680;28;19954;-31
2023/01/22 07:00:50;;;;;;;;;;;0.90;88.20;;;;;;5091759;28;19908;-36
2023/01/22 07:03:16;;;;;;;;;;;0.90;88.30;;;;;;5091423;28;19912;-28
2023/01/22 07:05:41;;;;;;;;;;;0.90;88.30;;;;;;5091761;28;19943;-26
2023/01/22 07:08:07;;;;;;;;;;;0.90;88.30;;;;;;5091429;28;20294;-28
2023/01/22 07:10:33;;;;;;;;;;;0.90;88.30;;;;;;5091365;28;19908;-27
2023/01/22 07:12:58;;;;;;;;;;;1.00;88.40;;;;;;5091422;28;19957;-27
2023/01/22 07:15:24;;;;;;;;;;;0.90;88.30;;;;;;5094341;28;19920;-26
2023/01/22 07:17:51;;;;;;;;;;;0.90;88.40;;;;;;5095473;28;19951;-26
2023/01/22 07:20:17;;;;;;;;;;;0.90;88.40;;;;;;5094798;28;19934;-27
2023/01/22 07:22:42;;;;;;;;;;;0.90;88.50;;;;;;5095294;28;19915;-30
2023/01/22 07:25:08;;;;;;;;;;;0.90;88.50;;;;;;5095163;28;19931;-30
2023/01/22 07:27:33;;;;;;;;;;;0.90;88.50;;;;;;5094892;28;19908;-26
2023/01/22 07:29:59;;;;;;;;;;;0.90;88.50;;;;;;5095098;28;20304;-29
2023/01/22 07:32:24;;;;;;;;;;;0.90;88.50;;;;;;5094751;28;19915;-30
2023/01/22 07:34:50;;;;;;;;;;;0.90;88.60;;;;;;5095057;28;19912;-28
2023/01/22 07:37:15;;;;;;;;;;;0.90;88.60;;;;;;5094703;28;19916;-30
2023/01/22 07:39:41;;;;;;;;;;;0.90;88.60;;;;;;5094504;28;19915;-29
2023/01/22 07:42:06;;;;;;;;;;;0.80;88.60;;;;;;5093289;28;19908;-27
2023/01/22 07:44:32;;;;;;;;;;;0.90;88.70;;;;;;5094803;28;19968;-25
2023/01/22 07:46:57;;;;;;;;;;;0.80;88.60;;;;;;5094871;28;20295;-26
2023/01/22 07:49:23;;;;;;;;;;;0.80;88.60;;;;;;5094507;28;19908;-28
2023/01/22 07:51:48;;;;;;;;;;;0.80;88.60;;;;;;5094469;28;19908;-27
2023/01/22 07:54:14;;;;;;;;;;;0.80;88.60;;;;;;5094719;28;19908;-26
2023/01/22 07:56:39;;;;;;;;;;;0.80;88.60;;;;;;5094262;28;19951;-25
2023/01/22 07:59:05;;;;;;;;;;;0.80;88.50;;;;;;5094395;28;19912;-28
2023/01/22 08:01:30;;;;;;;;;;;0.80;88.60;;;;;;5094186;28;19961;-32
2023/01/22 08:03:56;;;;;;;;;;;0.90;88.60;;;;;;5094232;28;19997;-28
2023/01/22 08:06:21;;;;;;;;;;;0.90;88.60;;;;;;5094095;28;19908;-25
2023/01/22 08:08:47;;;;;;;;;;;0.90;88.50;;;;;;5094368;28;19908;-33
2023/01/22 08:11:13;;;;;;;;;;;1.00;88.50;;;;;;5094784;28;20334;-27
2023/01/22 08:13:39;;;;;;;;;;;1.00;88.50;;;;;;5094059;28;19946;-29
2023/01/22 08:16:05;;;;;;;;;;;1.00;88.30;;;;;;5094131;28;20272;-29
2023/01/22 08:18:31;;;;;;;;;;;1.10;88.30;;;;;;5094092;28;19912;-26
2023/01/22 08:21:00;;;;;;;;;;;1.10;88.20;;;;;;5094061;28;20049;-28
2023/01/22 08:23:25;;;;;;;;;;;1.10;88.00;;;;;;5093999;28;19915;-25
2023/01/22 08:25:51;;;;;;;;;;;1.10;88.10;;;;;;5092680;28;19908;-25
2023/01/22 08:28:16;;;;;;;;;;;1.10;88.00;;;;;;5093921;28;19908;-36
2023/01/22 08:30:42;;;;;;;;;;;1.20;88.00;;;;;;5093628;28;19908;-28
2023/01/22 08:33:07;;;;;;;;;;;1.20;88.00;;;;;;5092337;28;19931;-28
2023/01/22 08:35:33;;;;;;;;;;;1.20;87.90;;;;;;5093738;28;19934;-47
2023/01/22 08:37:59;;;;;;;;;;;1.30;87.90;;;;;;5093643;28;19908;-26
2023/01/22 08:40:25;;;;;;;;;;;1.30;87.90;;;;;;5093477;28;19914;-33
2023/01/22 08:42:51;;;;;;;;;;;1.30;87.70;;;;;;5093666;28;20003;-28
2023/01/22 08:45:16;;;;;;;;;;;1.40;87.50;;;;;;5093466;28;19912;-26
2023/01/22 08:47:42;;;;;;;;;;;1.30;87.50;;;;;;5093394;28;19908;-28
2023/01/22 08:50:07;;;;;;;;;;;1.40;87.60;;;;;;5093430;28;20264;-29
2023/01/22 08:52:33;;;;;;;;;;;1.40;87.70;;;;;;5093163;28;20014;-25
2023/01/22 08:54:59;;;;;;;;;;;1.40;87.60;;;;;;5091747;28;19915;-27
2023/01/22 08:57:24;;;;;;;;;;;1.40;87.40;;;;;;5093149;28;19912;-26
2023/01/22 08:59:49;;;;;;;;;;;1.40;87.50;;;;;;5092963;28;19973;-28
2023/01/22 09:02:15;;;;;;;;;;;1.50;87.40;;;;;;5093336;28;19912;-26
2023/01/22 09:04:40;;;;;;;;;;;1.50;87.50;;;;;;5093242;28;20423;-29
2023/01/22 09:07:06;;;;;;;;;;;1.50;87.40;;;;;;5092894;28;20053;-28
2023/01/22 09:09:32;;;;;;;;;;;1.60;87.60;;;;;;5092964;28;19951;-26
2023/01/22 09:11:57;;;;;;;;;;;1.60;87.30;;;;;;5093346;28;19919;-25
2023/01/22 09:14:23;;;;;;;;;;;1.60;87.00;;;;;;5092446;28;19931;-26
2023/01/22 09:16:48;;;;;;;;;;;1.60;87.10;;;;;;5092970;28;20387;-29
2023/01/22 09:19:14;;;;;;;;;;;1.70;87.40;;;;;;5092794;28;20370;-25
2023/01/22 09:21:39;;;;;;;;;;;1.70;87.20;;;;;;5092633;28;19955;-31
2023/01/22 09:24:05;;;;;;;;;;;1.80;87.10;;;;;;5092778;28;19915;-27
2023/01/22 09:26:31;;;;;;;;;;;1.80;86.90;;;;;;5092701;28;19916;-35
2023/01/22 09:28:59;;;;;;;;;;;1.80;86.90;;;;;;5092471;28;20298;-26
2023/01/22 09:31:25;;;;;;;;;;;1.80;86.80;;;;;;5092878;28;19998;-25
2023/01/22 09:33:51;;;;;;;;;;;1.80;87.00;;;;;;5092453;28;19912;-28
2023/01/22 09:36:16;;;;;;;;;;;1.80;87.10;;;;;;5092342;28;19927;-29
2023/01/22 09:38:42;;;;;;;;;;;1.90;86.80;;;;;;5092392;28;20003;-26
2023/01/22 09:41:10;;;;;;;;;;;1.90;86.40;;;;;;5092598;28;20429;-32
2023/01/22 09:43:39;;;;;;;;;;;1.90;86.20;;;;;;5092612;28;20283;-33
2023/01/22 09:46:19;;;;;;;;;;;1.90;86.50;;;;;;5092626;28;20368;-30
2023/01/22 09:48:46;;;;;;;;;;;1.90;86.30;;;;;;5092550;28;19959;-29
2023/01/22 09:51:13;;;;;;;;;;;1.80;86.40;;;;;;5092851;28;20402;-28
2023/01/22 09:53:38;;;;;;;;;;;1.80;86.30;;;;;;5092329;28;19927;-28
2023/01/22 09:56:04;;;;;;;;;;;1.90;86.30;;;;;;5092115;28;19916;-29
2023/01/22 09:58:33;;;;;;;;;;;1.90;86.40;;;;;;5091048;28;19912;-29
2023/01/22 10:01:00;;;;;;;;;;;1.90;86.20;;;;;;5092319;28;19982;-27
2023/01/22 10:03:30;;;;;;;;;;;1.90;86.20;;;;;;5090889;28;20396;-25
2023/01/22 10:05:58;;;;;;;;;;;1.90;86.20;;;;;;5092368;28;20441;-28
2023/01/22 10:08:30;;;;;;;;;;;1.90;86.20;;;;;;5092261;28;19918;-32
2023/01/22 10:10:56;;;;;;;;;;;1.90;86.30;;;;;;5092227;28;19923;-28
2023/01/22 10:13:33;;;;;;;;;;;2.00;86.20;;;;;;5092372;28;19912;-29
2023/01/22 10:15:59;;;;;;;;;;;2.00;86.20;;;;;;5090631;28;20327;-26
2023/01/22 10:18:45;;;;;;;;;;;2.00;86.00;;;;;;5092184;28;19912;-43
2023/01/22 10:21:25;;;;;;;;;;;2.00;86.20;;;;;;5091609;28;19912;-27
2023/01/22 10:23:50;;;;;;;;;;;2.00;86.40;;;;;;5092168;28;19998;-29
2023/01/22 10:26:18;;;;;;;;;;;2.00;86.20;;;;;;5092186;28;19966;-28
2023/01/22 10:29:09;;;;;;;;;;;2.10;86.40;;;;;;5092411;28;19924;-30
2023/01/22 10:31:36;;;;;;;;;;;2.10;86.20;;;;;;5067935;28;19912;-29
2023/01/22 10:34:02;;;;;;;;;;;2.10;86.00;;;;;;5092334;28;19981;-28
2023/01/22 10:36:28;;;;;;;;;;;2.10;86.20;;;;;;5091956;28;19920;-28
2023/01/22 10:39:03;;;;;;;;;;;2.10;86.20;;;;;;5092178;28;20371;-32
2023/01/22 10:41:29;;;;;;;;;;;2.10;86.30;;;;;;5092154;28;19919;-29
2023/01/22 10:43:55;;;;;;;;;;;2.10;86.20;;;;;;5092099;28;19999;-28
2023/01/22 10:46:25;;;;;;;;;;;2.10;86.80;;;;;;5091705;28;19951;-26
2023/01/22 10:49:01;;;;;;;;;;;2.20;86.20;;;;;;5091104;28;19994;-31
2023/01/22 10:51:31;;;;;;;;;;;2.20;86.10;;;;;;5095606;28;20392;-29
2023/01/22 10:53:57;;;;;;;;;;;2.10;86.00;;;;;;5095983;28;19965;-27
2023/01/22 10:56:36;;;;;;;;;;;2.10;86.00;;;;;;5095529;28;19971;-25
2023/01/22 10:59:03;;;;;;;;;;;2.10;86.00;;;;;;5095590;28;20381;-33
2023/01/22 11:01:36;;;;;;;;;;;2.10;86.10;;;;;;5095520;28;19912;-26
2023/01/22 11:04:19;;;;;;;;;;;2.20;86.30;;;;;;5095389;28;19912;-27
2023/01/22 11:06:47;;;;;;;;;;;2.20;86.00;;;;;;5093976;28;20374;-30
2023/01/22 11:09:20;;;;;;;;;;;2.20;86.10;;;;;;5095387;28;19919;-27
2023/01/22 11:11:52;;;;;;;;;;;2.20;86.10;;;;;;5095228;28;19912;-26
2023/01/22 11:14:28;;;;;;;;;;;2.30;86.20;;;;;;5095009;28;19920;-28
2023/01/22 11:16:57;;;;;;;;;;;2.20;85.90;;;;;;5095449;28;19943;-30
2023/01/22 11:19:24;;;;;;;;;;;2.30;86.00;;;;;;5095054;28;20003;-27
2023/01/22 11:21:51;;;;;;;;;;;2.20;86.00;;;;;;5095232;28;20049;-26
2023/01/22 11:24:21;;;;;;;;;;;2.30;86.00;;;;;;5095002;28;19919;-27
2023/01/22 11:26:53;;;;;;;;;;;2.30;86.20;;;;;;5094722;28;19919;-25
2023/01/22 11:29:31;;;;;;;;;;;2.30;86.10;;;;;;5094774;28;19912;-26
2023/01/22 11:32:15;;;;;;;;;;;2.30;86.30;;;;;;5094669;28;19959;-27
2023/01/22 11:34:59;;;;;;;;;;;2.40;86.20;;;;;;5094596;28;19948;-27
2023/01/22 11:37:42;;;;;;;;;;;2.50;86.00;;;;;;5094776;28;19916;-26
2023/01/22 11:40:13;;;;;;;;;;;2.40;86.00;;;;;;5093158;28;19965;-27
2023/01/22 11:42:42;;;;;;;;;;;2.50;86.20;;;;;;5094870;28;20007;-29
2023/01/22 11:45:08;;;;;;;;;;;2.50;85.70;;;;;;5094579;28;19912;-26
2023/01/22 11:48:09;;;;;;;;;;;2.50;85.80;;;;;;5094596;28;19957;-26
2023/01/22 11:50:54;;;;;;;;;;;2.40;85.60;;;;;;5031720;28;20365;-31
2023/01/22 11:53:37;;;;;;;;;;;2.40;85.60;;;;;;5089649;28;20299;-31
2023/01/22 11:56:21;;;;;;;;;;;2.40;85.70;;;;;;5094162;28;19916;-31
2023/01/22 11:58:57;;;;;;;;;;;2.40;85.90;;;;;;5094506;28;19985;-27
2023/01/22 12:01:43;;;;;;;;;;;2.40;85.80;;;;;;5093963;28;20002;-27
2023/01/22 12:04:08;;;;;;;;;;;2.50;85.70;;;;;;5094578;28;20474;-32
2023/01/22 12:06:43;;;;;;;;;;;2.50;85.70;;;;;;5094197;28;19954;-31
2023/01/22 12:09:27;;;;;;;;;;;2.60;85.70;;;;;;5094255;28;19912;-34
2023/01/22 12:12:11;;;;;;;;;;;2.60;85.60;;;;;;5094087;28;20320;-29
2023/01/22 12:14:46;;;;;;;;;;;2.70;85.80;;;;;;5092521;28;19967;-26
2023/01/22 12:17:14;;;;;;;;;;;2.70;85.50;;;;;;5092484;28;19991;-32
2023/01/22 12:20:06;;;;;;;;;;;2.70;85.60;;;;;;5094198;28;19919;-28
2023/01/22 12:22:34;;;;;;;;;;;2.70;85.20;;;;;;5090625;28;19986;-30
2023/01/22 12:25:18;;;;;;;;;;;2.80;85.40;;;;;;5093827;28;19912;-32
2023/01/22 12:27:50;;;;;;;;;;;2.80;85.30;;;;;;5093721;28;19912;-29
2023/01/22 12:30:34;;;;;;;;;;;2.80;85.40;;;;;;5093973;28;20272;-31
2023/01/22 12:33:00;;;;;;;;;;;2.80;85.40;;;;;;5093647;28;19919;-29
2023/01/22 12:35:28;;;;;;;;;;;2.80;85.30;;;;;;5093752;28;19912;-29
2023/01/22 12:38:13;;;;;;;;;;;2.90;85.40;;;;;;5093575;28;20367;-28
2023/01/22 12:40:51;;;;;;;;;;;2.80;85.20;;;;;;5093596;28;20353;-33
2023/01/22 12:43:18;;;;;;;;;;;2.90;85.00;;;;;;5093472;28;20002;-39
2023/01/22 12:45:46;;;;;;;;;;;2.80;85.10;;;;;;5093490;28;19912;-33
2023/01/22 12:48:14;;;;;;;;;;;2.80;85.00;;;;;;5093435;28;19923;-29
2023/01/22 12:50:55;;;;;;;;;;;2.80;85.10;;;;;;5093556;28;20413;-31
2023/01/22 12:53:21;;;;;;;;;;;2.80;85.30;;;;;;5093310;28;19994;-28
2023/01/22 12:55:56;;;;;;;;;;;2.90;85.50;;;;;;5093114;28;19934;-28
2023/01/22 12:58:22;;;;;;;;;;;2.90;85.50;;;;;;5093322;28;20304;-30
2023/01/22 13:00:58;;;;;;;;;;;2.90;85.40;;;;;;5093255;28;19916;-30
2023/01/22 13:03:27;;;;;;;;;;;3.00;85.40;;;;;;5093197;28;20348;-30
2023/01/22 13:05:53;;;;;;;;;;;3.00;85.50;;;;;;5093533;28;20330;-31
2023/01/22 13:08:18;;;;;;;;;;;3.10;85.50;;;;;;5093185;28;19951;-27
2023/01/22 13:10:53;;;;;;;;;;;3.10;85.40;;;;;;5093138;28;19912;-29
2023/01/22 13:13:25;;;;;;;;;;;3.10;85.20;;;;;;5092693;28;19947;-31
2023/01/22 13:15:53;;;;;;;;;;;3.10;85.30;;;;;;5092756;28;19924;-33
2023/01/22 13:18:20;;;;;;;;;;;3.10;85.40;;;;;;5092963;28;19937;-28
2023/01/22 13:21:16;;;;;;;;;;;3.10;85.10;;;;;;5093238;28;19913;-29
2023/01/22 13:23:43;;;;;;;;;;;3.10;85.10;;;;;;5079728;28;20078;-32
2023/01/22 13:26:22;;;;;;;;;;;3.10;85.10;;;;;;5092876;28;19972;-29
2023/01/22 13:28:49;;;;;;;;;;;3.10;85.00;;;;;;5092668;28;19912;-29
2023/01/22 13:31:15;;;;;;;;;;;3.00;85.10;;;;;;5092595;28;20045;-32
2023/01/22 13:33:50;;;;;;;;;;;3.00;85.20;;;;;;5092709;28;19969;-34
2023/01/22 13:36:16;;;;;;;;;;;3.00;85.40;;;;;;5092583;28;19920;-34
2023/01/22 13:38:49;;;;;;;;;;;3.00;85.30;;;;;;5092887;28;19918;-27
2023/01/22 13:41:22;;;;;;;;;;;3.00;85.40;;;;;;5092925;28;19948;-30
2023/01/22 13:43:48;;;;;;;;;;;3.10;85.30;;;;;;5092638;28;19912;-28
2023/01/22 13:46:13;;;;;;;;;;;3.00;85.20;;;;;;5092565;28;19934;-29
2023/01/22 13:48:39;;;;;;;;;;;3.00;85.30;;;;;;5092769;28;19919;-34
2023/01/22 13:51:05;;;;;;;;;;;3.00;85.30;;;;;;5092594;28;20347;-27
2023/01/22 13:53:33;;;;;;;;;;;3.00;85.40;;;;;;5092366;28;19916;-27
2023/01/22 13:55:59;;;;;;;;;;;3.00;85.40;;;;;;5092298;28;19916;-33
2023/01/22 13:58:43;;;;;;;;;;;3.00;85.30;;;;;;5092319;28;19951;-33
2023/01/22 14:01:09;;;;;;;;;;;3.10;85.60;;;;;;5092574;28;19995;-27
2023/01/22 14:03:34;;;;;;;;;;;3.10;85.60;;;;;;5092556;28;20010;-29
2023/01/22 14:06:10;;;;;;;;;;;3.00;85.30;;;;;;5092306;28;19970;-35
2023/01/22 14:08:49;;;;;;;;;;;3.00;85.30;;;;;;5092197;28;19920;-28
2023/01/22 14:11:15;;;;;;;;;;;3.00;85.50;;;;;;5090871;28;19912;-30
2023/01/22 14:13:42;;;;;;;;;;;3.00;85.50;;;;;;5092238;28;20458;-30
2023/01/22 14:16:08;;;;;;;;;;;3.00;85.50;;;;;;5091915;28;20383;-28
2023/01/22 14:18:33;;;;;;;;;;;2.90;85.50;;;;;;5092331;28;19913;-32
2023/01/22 14:20:59;;;;;;;;;;;2.90;85.60;;;;;;5091977;28;19965;-30
2023/01/22 14:23:24;;;;;;;;;;;2.90;85.70;;;;;;5092439;28;19920;-29
2023/01/22 14:25:51;;;;;;;;;;;2.90;85.80;;;;;;5096294;28;19912;-27
2023/01/22 14:28:17;;;;;;;;;;;2.90;85.60;;;;;;5096238;28;19916;-26
2023/01/22 14:30:43;;;;;;;;;;;2.90;85.70;;;;;;5096383;28;19919;-28
2023/01/22 14:33:10;;;;;;;;;;;2.90;85.70;;;;;;5096474;28;20279;-32
2023/01/22 14:35:36;;;;;;;;;;;2.90;85.80;;;;;;5096012;28;20003;-32
2023/01/22 14:38:01;;;;;;;;;;;2.90;85.90;;;;;;5095988;28;20038;-31
2023/01/22 14:40:28;;;;;;;;;;;3.00;85.80;;;;;;5095798;28;19912;-31